Time;durP1;ratioP1;P1;durP2;ratioP2;P2;SDS_P1;SDS_P2;PMS_P1;PMS_P2;Temp;Humidity;BMP_temperature;BMP_pressure;BME280_temperature;BME280_humidity;BME280_pressure;Samples;Min_cycle;Max_cycle;Signal;HPM_P1;HPM_P2
2024/03/13 00:01:53;;;;;;;68.82;10.63;;;11.50;94.80;;;;;;5032304;28;20024;-59
2024/03/13 00:04:19;;;;;;;51.28;9.10;;;11.40;94.80;;;;;;5048828;28;20025;-59
2024/03/13 00:06:46;;;;;;;58.35;9.18;;;11.40;94.80;;;;;;5048890;28;20036;-59
2024/03/13 00:09:12;;;;;;;45.38;9.20;;;11.40;94.90;;;;;;5066373;28;20025;-59
2024/03/13 00:11:40;;;;;;;47.88;9.00;;;11.40;94.90;;;;;;5048661;28;20024;-59
2024/03/13 00:14:06;;;;;;;60.20;9.73;;;11.30;94.90;;;;;;5049130;28;20033;-59
2024/03/13 00:16:32;;;;;;;75.65;11.93;;;11.30;94.90;;;;;;5032246;28;20052;-59
2024/03/13 00:18:58;;;;;;;52.65;9.57;;;11.30;94.90;;;;;;5048894;28;20029;-59
2024/03/13 00:21:28;;;;;;;41.53;8.30;;;11.30;95.00;;;;;;5048647;28;20107;-59
2024/03/13 00:23:54;;;;;;;44.88;8.93;;;11.30;95.00;;;;;;5033837;28;20032;-59
2024/03/13 00:26:21;;;;;;;44.35;8.35;;;11.30;95.10;;;;;;5048555;28;20433;-59
2024/03/13 00:28:48;;;;;;;57.83;8.98;;;11.30;95.00;;;;;;5066233;28;20311;-59
2024/03/13 00:31:14;;;;;;;40.53;8.00;;;11.30;95.00;;;;;;5066229;28;20040;-60
2024/03/13 00:33:40;;;;;;;42.25;7.68;;;11.30;95.00;;;;;;5048439;28;20105;-59
2024/03/13 00:36:09;;;;;;;50.35;8.88;;;11.20;95.00;;;;;;5066051;28;20059;-59
2024/03/13 00:38:35;;;;;;;41.60;7.65;;;11.30;95.00;;;;;;5032350;28;20041;-59
2024/03/13 00:41:01;;;;;;;42.83;8.65;;;11.20;95.00;;;;;;5066186;28;20453;-59
2024/03/13 00:43:27;;;;;;;37.35;7.03;;;11.20;95.00;;;;;;5031540;28;20044;-59
2024/03/13 00:45:53;;;;;;;34.45;6.68;;;11.20;95.00;;;;;;5031833;28;20053;-59
2024/03/13 00:48:20;;;;;;;50.30;7.97;;;11.20;95.10;;;;;;5065996;28;20059;-59
2024/03/13 00:50:48;;;;;;;33.72;7.03;;;11.20;95.10;;;;;;5048227;28;20059;-59
2024/03/13 00:53:14;;;;;;;49.50;8.32;;;11.20;95.10;;;;;;5048621;28;20032;-59
2024/03/13 00:55:40;;;;;;;35.42;6.82;;;11.20;95.10;;;;;;5048188;28;20029;-59
2024/03/13 00:58:08;;;;;;;30.90;5.95;;;11.10;95.10;;;;;;5048110;28;20032;-59
2024/03/13 01:00:35;;;;;;;34.45;7.53;;;11.10;95.20;;;;;;5047975;28;20029;-59
2024/03/13 01:03:02;;;;;;;43.28;7.70;;;11.10;95.20;;;;;;5051393;28;20029;-59
2024/03/13 01:05:28;;;;;;;30.88;6.95;;;11.10;95.20;;;;;;5052364;28;20387;-59
2024/03/13 01:07:55;;;;;;;34.90;6.18;;;11.10;95.20;;;;;;5052279;28;20108;-59
2024/03/13 01:10:24;;;;;;;38.97;6.47;;;11.00;95.20;;;;;;5018869;28;20094;-58
2024/03/13 01:12:50;;;;;;;31.00;5.60;;;11.00;95.20;;;;;;5036448;28;20060;-59
2024/03/13 01:15:16;;;;;;;27.75;6.65;;;11.00;95.30;;;;;;5069537;28;20021;-59
2024/03/13 01:17:42;;;;;;;33.65;6.75;;;11.00;95.30;;;;;;5035173;28;20037;-59
2024/03/13 01:20:09;;;;;;;35.08;6.15;;;10.90;95.30;;;;;;5069717;28;20021;-59
2024/03/13 01:22:37;;;;;;;29.08;5.47;;;10.90;95.30;;;;;;5052035;28;20032;-59
2024/03/13 01:25:03;;;;;;;31.63;6.95;;;10.90;95.30;;;;;;5069326;28;20036;-59
2024/03/13 01:27:29;;;;;;;30.25;5.53;;;10.90;95.40;;;;;;5035698;28;20033;-59
2024/03/13 01:29:54;;;;;;;24.10;5.38;;;10.90;95.40;;;;;;5051742;28;20033;-59
2024/03/13 01:32:20;;;;;;;21.48;4.93;;;10.90;95.40;;;;;;5051568;28;20498;-59
2024/03/13 01:34:46;;;;;;;27.20;5.70;;;10.90;95.40;;;;;;5069341;28;20025;-59
2024/03/13 01:39:56;;;;;;;27.02;5.15;;;10.80;95.40;;;;;;5040121;28;20036;-59
2024/03/13 01:54:50;;;;;;;22.23;5.38;;;10.80;95.40;;;;;;5053993;28;20104;-59
2024/03/13 01:56:30;;;;;;;16.38;4.93;;;10.80;95.60;;;;;;5053816;28;20036;-59
2024/03/13 01:59:03;;;;;;;26.00;5.00;;;10.80;95.60;;;;;;5018190;28;20033;-59
2024/03/13 02:04:16;;;;;;;21.38;5.78;;;10.70;95.50;;;;;;5039707;28;20037;-59
2024/03/13 02:06:42;;;;;;;17.42;4.53;;;10.80;95.60;;;;;;5051518;28;20033;-59
2024/03/13 02:09:09;;;;;;;19.80;4.78;;;10.70;95.60;;;;;;5034544;28;20029;-59
2024/03/13 02:11:36;;;;;;;20.58;4.68;;;10.70;95.60;;;;;;5034402;28;20029;-59
2024/03/13 02:14:04;;;;;;;24.92;4.60;;;10.70;95.60;;;;;;5050737;28;20052;-59
2024/03/13 02:16:30;;;;;;;19.27;4.28;;;10.70;95.60;;;;;;5050897;28;20021;-59
2024/03/13 02:18:58;;;;;;;15.57;4.97;;;10.70;95.60;;;;;;5050911;28;20017;-59
2024/03/13 02:21:24;;;;;;;25.15;5.10;;;10.70;95.60;;;;;;5050943;28;20020;-59
2024/03/13 02:23:50;;;;;;;18.90;4.43;;;10.70;95.60;;;;;;5050482;28;20410;-59
2024/03/13 02:26:15;;;;;;;24.35;5.18;;;10.70;95.60;;;;;;5034142;28;20028;-59
2024/03/13 02:28:41;;;;;;;22.80;4.95;;;10.60;95.70;;;;;;5050716;28;20029;-59
2024/03/13 02:31:07;;;;;;;15.70;4.57;;;10.60;95.70;;;;;;5068195;28;20498;-59
2024/03/13 02:33:33;;;;;;;22.00;4.28;;;10.60;95.70;;;;;;5068703;28;20021;-59
2024/03/13 02:35:59;;;;;;;17.55;4.32;;;10.60;95.70;;;;;;5068320;28;20025;-59
2024/03/13 02:38:24;;;;;;;15.10;4.60;;;10.60;95.80;;;;;;5034031;28;20052;-59
2024/03/13 02:40:50;;;;;;;15.73;4.05;;;10.60;95.80;;;;;;5068217;28;20025;-59
2024/03/13 02:43:16;;;;;;;19.60;3.58;;;10.50;95.80;;;;;;5050243;28;20029;-59
2024/03/13 02:45:42;;;;;;;13.73;4.00;;;10.60;95.80;;;;;;5050129;28;20021;-59
2024/03/13 02:48:08;;;;;;;19.85;3.83;;;10.50;95.80;;;;;;5033776;28;20085;-59
2024/03/13 02:50:33;;;;;;;14.93;3.35;;;10.50;95.80;;;;;;5049777;28;20040;-59
2024/03/13 02:52:59;;;;;;;16.08;3.30;;;10.50;95.90;;;;;;5016931;28;20072;-59
2024/03/13 02:55:24;;;;;;;10.52;3.65;;;10.50;95.80;;;;;;5067785;28;20468;-59
2024/03/13 02:57:51;;;;;;;15.90;3.40;;;10.50;95.80;;;;;;5050089;28;20021;-59
2024/03/13 03:00:17;;;;;;;9.57;3.35;;;10.50;95.80;;;;;;5067770;28;20021;-59
2024/03/13 03:02:43;;;;;;;17.63;4.35;;;10.50;95.80;;;;;;5067664;28;20037;-59
2024/03/13 03:05:09;;;;;;;19.65;4.10;;;10.50;95.80;;;;;;5033190;28;20029;-59
2024/03/13 03:07:34;;;;;;;9.98;3.63;;;10.50;95.90;;;;;;5067631;28;20112;-59
2024/03/13 03:10:00;;;;;;;16.65;3.50;;;10.50;95.90;;;;;;5033301;28;20032;-59
2024/03/13 03:12:26;;;;;;;12.30;3.33;;;10.50;95.90;;;;;;5067436;28;20036;-59
2024/03/13 03:14:55;;;;;;;16.88;3.97;;;10.50;95.80;;;;;;5049627;28;20029;-59
2024/03/13 03:17:22;;;;;;;12.90;3.42;;;10.50;95.90;;;;;;5050083;28;20032;-59
2024/03/13 03:19:50;;;;;;;11.85;3.00;;;10.50;95.90;;;;;;5033023;28;20079;-59
2024/03/13 03:22:19;;;;;;;15.50;3.10;;;10.50;95.90;;;;;;5017380;28;20029;-59
2024/03/13 03:24:45;;;;;;;14.60;2.85;;;10.40;95.90;;;;;;5032064;28;20029;-59
2024/03/13 03:27:11;;;;;;;10.65;3.13;;;10.40;95.90;;;;;;5033241;28;20029;-59
2024/03/13 03:29:43;;;;;;;9.75;2.80;;;10.40;95.90;;;;;;5032862;28;20037;-59
2024/03/13 03:32:09;;;;;;;9.73;2.65;;;10.50;96.00;;;;;;5033489;28;20033;-59
2024/03/13 03:34:35;;;;;;;12.38;3.17;;;10.40;95.90;;;;;;5067023;28;20025;-59
2024/03/13 03:37:03;;;;;;;10.05;3.53;;;10.40;95.90;;;;;;5032518;28;20092;-60
2024/03/13 03:39:29;;;;;;;9.23;2.85;;;10.40;95.90;;;;;;5049531;28;20051;-59
2024/03/13 03:41:56;;;;;;;10.93;3.10;;;10.40;95.90;;;;;;5032436;28;20036;-59
2024/03/13 03:44:22;;;;;;;8.60;2.83;;;10.40;95.90;;;;;;5067145;28;20055;-59
2024/03/13 03:46:48;;;;;;;8.55;2.53;;;10.40;96.00;;;;;;5048917;28;20084;-59
2024/03/13 03:49:13;;;;;;;9.50;3.00;;;10.40;96.00;;;;;;5067092;28;20052;-59
2024/03/13 03:51:39;;;;;;;15.40;2.83;;;10.30;96.00;;;;;;5048812;28;20020;-59
2024/03/13 03:54:05;;;;;;;8.52;2.83;;;10.40;96.00;;;;;;5066754;28;20047;-59
2024/03/13 03:56:38;;;;;;;14.57;2.67;;;10.40;96.10;;;;;;5048790;28;20037;-59
2024/03/13 03:59:05;;;;;;;9.88;2.55;;;10.40;96.10;;;;;;5049997;28;20052;-59
2024/03/13 04:01:31;;;;;;;9.18;2.50;;;10.40;96.10;;;;;;5066431;28;20092;-60
2024/03/13 04:03:58;;;;;;;13.57;3.10;;;10.40;96.20;;;;;;5048602;28;20545;-59
2024/03/13 04:06:23;;;;;;;6.82;2.97;;;10.30;96.10;;;;;;5032545;28;20033;-59
2024/03/13 04:08:50;;;;;;;7.55;2.10;;;10.40;96.10;;;;;;5066680;28;20040;-59
2024/03/13 04:11:16;;;;;;;9.95;2.30;;;10.30;96.10;;;;;;5066549;28;20031;-59
2024/03/13 04:13:42;;;;;;;10.63;3.28;;;10.30;96.10;;;;;;5048783;28;20472;-59
2024/03/13 04:16:10;;;;;;;7.05;2.30;;;10.40;96.10;;;;;;5048681;28;20471;-59
2024/03/13 04:18:36;;;;;;;12.38;2.67;;;10.30;96.10;;;;;;5049121;28;20021;-59
2024/03/13 04:21:03;;;;;;;6.35;2.22;;;10.30;96.10;;;;;;5066387;28;20035;-59
2024/03/13 04:23:29;;;;;;;9.70;2.78;;;10.30;96.10;;;;;;5066436;28;20033;-59
2024/03/13 04:25:55;;;;;;;8.57;2.28;;;10.30;96.10;;;;;;5031785;28;20029;-59
2024/03/13 04:28:22;;;;;;;12.85;2.42;;;10.30;96.20;;;;;;5048472;28;20036;-59
2024/03/13 04:30:47;;;;;;;4.82;2.15;;;10.30;96.20;;;;;;5048469;28;20055;-59
2024/03/13 04:33:16;;;;;;;6.97;2.10;;;10.30;96.20;;;;;;5048433;28;20025;-59
2024/03/13 04:35:42;;;;;;;5.88;2.30;;;10.20;96.20;;;;;;5065957;28;20029;-59
2024/03/13 04:38:09;;;;;;;5.70;2.17;;;10.30;96.30;;;;;;5034893;28;20510;-59
2024/03/13 04:40:37;;;;;;;11.23;2.42;;;10.20;96.30;;;;;;5035952;28;20025;-59
2024/03/13 04:43:04;;;;;;;4.97;2.10;;;10.30;96.40;;;;;;5036564;28;20442;-59
2024/03/13 04:45:29;;;;;;;6.70;2.30;;;10.30;96.30;;;;;;5036342;28;20357;-59
2024/03/13 04:47:55;;;;;;;6.88;2.13;;;10.20;96.40;;;;;;5070503;28;20563;-59
2024/03/13 04:50:20;;;;;;;8.05;2.42;;;10.30;96.40;;;;;;5052281;28;20365;-58
2024/03/13 04:52:46;;;;;;;7.72;2.17;;;10.20;96.30;;;;;;5052409;28;20044;-59
2024/03/13 04:55:12;;;;;;;9.60;2.03;;;10.20;96.40;;;;;;5052338;28;20021;-59
2024/03/13 04:57:39;;;;;;;5.10;1.88;;;10.20;96.40;;;;;;5052133;28;20021;-59
2024/03/13 05:00:06;;;;;;;5.85;1.90;;;10.20;96.50;;;;;;5070119;28;20033;-59
2024/03/13 05:02:32;;;;;;;6.07;1.77;;;10.20;96.50;;;;;;5052119;28;20017;-59
2024/03/13 05:04:57;;;;;;;8.35;1.98;;;10.20;96.50;;;;;;5052256;28;20032;-59
2024/03/13 05:07:23;;;;;;;7.07;2.10;;;10.20;96.50;;;;;;5035661;28;20107;-59
2024/03/13 05:09:49;;;;;;;5.18;1.98;;;10.20;96.60;;;;;;5069737;28;20032;-59
2024/03/13 05:12:15;;;;;;;6.68;2.10;;;10.20;96.60;;;;;;5069758;28;20029;-59
2024/03/13 05:14:42;;;;;;;5.28;1.90;;;10.20;96.60;;;;;;5051886;28;20033;-59
2024/03/13 05:17:09;;;;;;;7.50;2.50;;;10.20;96.60;;;;;;5052111;28;20032;-59
2024/03/13 05:19:35;;;;;;;4.85;1.90;;;10.20;96.60;;;;;;5035628;28;20029;-59
2024/03/13 05:22:00;;;;;;;6.10;2.13;;;10.20;96.60;;;;;;5069835;28;20503;-59
2024/03/13 05:24:26;;;;;;;5.68;1.95;;;10.20;96.60;;;;;;5051997;28;20037;-59
2024/03/13 05:26:54;;;;;;;5.78;1.85;;;10.20;96.50;;;;;;5051683;28;20390;-59
2024/03/13 05:29:20;;;;;;;6.40;1.85;;;10.20;96.50;;;;;;5052146;28;20028;-59
2024/03/13 05:31:46;;;;;;;8.80;1.65;;;10.20;96.50;;;;;;5069358;28;20032;-59
2024/03/13 05:34:12;;;;;;;4.88;1.63;;;10.20;96.60;;;;;;5068426;28;20036;-59
2024/03/13 05:36:38;;;;;;;7.50;2.25;;;10.20;96.50;;;;;;5033315;28;20033;-59
2024/03/13 05:39:05;;;;;;;11.75;1.63;;;10.20;96.50;;;;;;5018479;28;20021;-59
2024/03/13 05:41:31;;;;;;;10.77;2.80;;;10.20;96.50;;;;;;5035148;28;20029;-59
2024/03/13 05:43:56;;;;;;;5.75;2.08;;;10.20;96.50;;;;;;5051250;28;20029;-59
2024/03/13 05:46:25;;;;;;;6.20;2.47;;;10.20;96.50;;;;;;5018227;28;20029;-59
2024/03/13 05:48:50;;;;;;;11.05;2.17;;;10.20;96.60;;;;;;5050460;28;20051;-59
2024/03/13 05:51:16;;;;;;;10.30;2.75;;;10.30;96.60;;;;;;5034545;28;20032;-60
2024/03/13 05:53:42;;;;;;;14.85;2.28;;;10.20;96.60;;;;;;5068791;28;20029;-59
2024/03/13 05:56:07;;;;;;;11.90;3.00;;;10.20;96.70;;;;;;5050956;28;20033;-59
2024/03/13 05:58:33;;;;;;;18.83;3.55;;;10.20;96.70;;;;;;5051771;28;20106;-60
2024/03/13 06:01:01;;;;;;;17.40;3.60;;;10.20;96.70;;;;;;5051643;28;20094;-59
2024/03/13 06:03:29;;;;;;;8.65;3.20;;;10.20;96.70;;;;;;5035188;28;20036;-60
2024/03/13 06:05:55;;;;;;;17.13;3.85;;;10.30;96.80;;;;;;5034439;28;20029;-59
2024/03/13 06:08:21;;;;;;;13.95;2.95;;;10.20;96.80;;;;;;5068677;28;20029;-59
2024/03/13 06:10:48;;;;;;;21.98;3.33;;;10.20;96.80;;;;;;5050687;28;20033;-59
2024/03/13 06:13:14;;;;;;;19.50;3.47;;;10.20;96.80;;;;;;5034511;28;20049;-59
2024/03/13 06:15:40;;;;;;;22.60;4.05;;;10.20;96.80;;;;;;5050718;28;20365;-59
2024/03/13 06:18:07;;;;;;;22.75;4.57;;;10.20;96.90;;;;;;5034141;28;20055;-60
2024/03/13 06:20:32;;;;;;;29.40;4.30;;;10.30;96.90;;;;;;5050726;28;20017;-59
2024/03/13 06:22:58;;;;;;;23.85;4.30;;;10.20;96.90;;;;;;5050589;28;20040;-59
2024/03/13 06:25:26;;;;;;;20.55;3.88;;;10.30;96.90;;;;;;5033909;28;20040;-59
2024/03/13 06:28:00;;;;;;;30.58;4.25;;;10.20;96.90;;;;;;5068270;28;20083;-59
2024/03/13 06:30:26;;;;;;;24.58;4.05;;;10.50;97.00;;;;;;5049847;28;20029;-59
2024/03/13 06:32:52;;;;;;;28.88;4.80;;;10.30;97.00;;;;;;5034360;28;20059;-60
2024/03/13 06:35:17;;;;;;;31.02;5.30;;;10.30;97.20;;;;;;5067716;28;20464;-59
2024/03/13 06:37:43;;;;;;;33.22;5.97;;;10.30;97.50;;;;;;5067846;28;20044;-60
2024/03/13 06:40:10;;;;;;;61.50;7.22;;;10.30;97.70;;;;;;5033855;28;20013;-60
2024/03/13 06:42:36;;;;;;;50.70;8.18;;;10.30;97.70;;;;;;5050380;28;20036;-59
2024/03/13 06:45:01;;;;;;;41.50;5.65;;;10.30;97.60;;;;;;5033508;28;20029;-60
2024/03/13 06:47:27;;;;;;;40.70;5.63;;;10.20;97.50;;;;;;5050166;28;20036;-59
2024/03/13 06:49:52;;;;;;;62.67;6.38;;;10.30;97.50;;;;;;5050177;28;20036;-60
2024/03/13 06:52:18;;;;;;;33.25;6.50;;;10.30;97.50;;;;;;5067688;28;20079;-59
2024/03/13 06:54:44;;;;;;;35.22;7.15;;;10.30;97.60;;;;;;5067892;28;20033;-60
2024/03/13 06:57:09;;;;;;;55.22;8.52;;;10.30;97.60;;;;;;5049852;28;20052;-60
2024/03/13 06:59:36;;;;;;;43.97;6.57;;;10.30;97.80;;;;;;5066926;28;20029;-60
2024/03/13 07:02:02;;;;;;;41.25;6.97;;;10.20;97.80;;;;;;5049725;28;20092;-60
2024/03/13 07:04:28;;;;;;;45.50;5.85;;;10.30;97.80;;;;;;5033071;28;20027;-60
2024/03/13 07:07:00;;;;;;;41.40;5.53;;;10.30;97.80;;;;;;5016894;28;20029;-60
2024/03/13 07:09:29;;;;;;;42.47;6.35;;;10.30;97.90;;;;;;5034004;28;20033;-60
2024/03/13 07:11:55;;;;;;;45.85;5.65;;;10.30;97.90;;;;;;5049409;28;20024;-60
2024/03/13 07:14:20;;;;;;;37.20;6.22;;;10.30;97.90;;;;;;5068141;28;20027;-59
2024/03/13 07:16:47;;;;;;;49.53;6.00;;;10.30;97.90;;;;;;5067891;28;20027;-59
2024/03/13 07:19:13;;;;;;;34.17;5.80;;;10.30;97.90;;;;;;5049707;28;20032;-59
2024/03/13 07:21:39;;;;;;;32.92;5.30;;;10.30;97.90;;;;;;5067295;28;20062;-60
2024/03/13 07:24:05;;;;;;;41.00;5.97;;;10.30;97.80;;;;;;5067173;28;20029;-59
2024/03/13 07:26:34;;;;;;;37.20;7.15;;;10.30;97.90;;;;;;5067274;28;20060;-59
2024/03/13 07:29:00;;;;;;;32.65;5.35;;;10.30;97.90;;;;;;5049527;28;20078;-59
2024/03/13 07:31:29;;;;;;;24.50;5.57;;;10.30;97.90;;;;;;5049124;28;20053;-60
2024/03/13 07:33:56;;;;;;;35.50;5.18;;;10.30;97.90;;;;;;5049722;28;20085;-60
2024/03/13 07:36:21;;;;;;;45.72;6.35;;;10.30;97.90;;;;;;5032408;28;20035;-60
2024/03/13 07:38:48;;;;;;;29.73;5.40;;;10.30;98.00;;;;;;5032598;28;20029;-60
2024/03/13 07:41:14;;;;;;;36.42;5.25;;;10.30;98.00;;;;;;5066831;28;20097;-60
2024/03/13 07:43:41;;;;;;;21.10;5.30;;;10.30;98.00;;;;;;5048969;28;20021;-59
2024/03/13 07:46:09;;;;;;;26.70;5.03;;;10.30;98.00;;;;;;5048785;28;20029;-60
2024/03/13 07:48:35;;;;;;;24.73;4.80;;;10.30;98.00;;;;;;5032551;28;20084;-60
2024/03/13 07:51:01;;;;;;;32.88;5.40;;;10.30;98.00;;;;;;5031973;28;20057;-59
2024/03/13 07:53:29;;;;;;;25.10;4.90;;;10.30;98.10;;;;;;5048855;28;20051;-59
2024/03/13 07:55:55;;;;;;;25.42;5.25;;;10.30;98.20;;;;;;5065047;28;20060;-59
2024/03/13 07:58:21;;;;;;;41.95;5.90;;;10.30;98.20;;;;;;5048553;28;20025;-59
2024/03/13 08:00:46;;;;;;;44.28;5.50;;;10.30;98.10;;;;;;5066000;28;20455;-59
2024/03/13 08:03:12;;;;;;;44.75;6.05;;;10.40;98.40;;;;;;5066450;28;20032;-59
2024/03/13 08:05:38;;;;;;;34.72;5.55;;;10.30;98.40;;;;;;5066333;28;20025;-60
2024/03/13 08:08:03;;;;;;;44.33;5.68;;;10.40;98.30;;;;;;5048665;28;20094;-60
2024/03/13 08:10:30;;;;;;;38.33;5.50;;;10.40;98.30;;;;;;5047725;28;20463;-59
2024/03/13 08:12:56;;;;;;;36.63;5.50;;;10.40;98.30;;;;;;5048560;28;20052;-59
2024/03/13 08:15:22;;;;;;;47.03;6.00;;;10.40;98.30;;;;;;5049378;28;20067;-59
2024/03/13 08:17:47;;;;;;;36.55;6.45;;;10.40;98.40;;;;;;5066427;28;20079;-59
2024/03/13 08:20:16;;;;;;;37.05;5.47;;;10.40;98.30;;;;;;5066389;28;20021;-60
2024/03/13 08:22:44;;;;;;;66.00;8.73;;;10.40;98.30;;;;;;5032318;28;20044;-59
2024/03/13 08:25:16;;;;;;;38.78;6.03;;;10.40;98.60;;;;;;5066571;28;20085;-60
2024/03/13 08:27:44;;;;;;;46.00;6.90;;;10.40;98.50;;;;;;5066300;28;20029;-60
2024/03/13 08:30:10;;;;;;;44.70;7.82;;;10.50;98.50;;;;;;5047231;28;20029;-60
2024/03/13 08:32:37;;;;;;;84.93;10.63;;;10.50;98.60;;;;;;5047560;28;20091;-60
2024/03/13 08:35:04;;;;;;;116.18;12.27;;;10.50;98.70;;;;;;5065268;28;20036;-59
2024/03/13 08:37:30;;;;;;;84.18;11.80;;;10.50;98.80;;;;;;5038257;28;20033;-60
2024/03/13 08:39:58;;;;;;;64.80;9.25;;;10.50;98.90;;;;;;5065679;28;20024;-60
2024/03/13 08:42:24;;;;;;;82.95;8.95;;;10.50;99.00;;;;;;5066089;28;20085;-60
2024/03/13 08:44:50;;;;;;;63.17;7.97;;;10.60;99.10;;;;;;5066005;28;20059;-60
2024/03/13 08:47:18;;;;;;;56.30;7.38;;;10.50;99.10;;;;;;5058757;28;20048;-60
2024/03/13 08:49:45;;;;;;;51.00;7.53;;;10.60;99.00;;;;;;5048634;28;20021;-60
2024/03/13 08:52:12;;;;;;;72.80;9.35;;;10.60;99.00;;;;;;5044267;28;20029;-60
2024/03/13 08:54:38;;;;;;;61.03;7.80;;;10.60;99.30;;;;;;5047571;28;20102;-60
2024/03/13 08:57:04;;;;;;;54.25;7.78;;;10.60;99.50;;;;;;5047308;28;20033;-60
2024/03/13 08:59:29;;;;;;;58.80;8.95;;;10.70;99.60;;;;;;5065425;28;20056;-60
2024/03/13 09:01:55;;;;;;;61.50;7.85;;;10.60;99.60;;;;;;5047826;28;20092;-60
2024/03/13 09:04:22;;;;;;;52.00;7.88;;;10.70;99.50;;;;;;5049919;28;20029;-60
2024/03/13 09:06:49;;;;;;;56.00;7.88;;;10.70;99.50;;;;;;5047321;28;20040;-60
2024/03/13 09:09:23;;;;;;;53.35;8.05;;;10.70;99.80;;;;;;5064414;28;20033;-60
2024/03/13 09:11:49;;;;;;;94.82;10.25;;;10.70;99.80;;;;;;5064430;28;20044;-60
2024/03/13 09:14:17;;;;;;;135.23;12.85;;;10.70;99.90;;;;;;5028232;28;20044;-60
2024/03/13 09:16:43;;;;;;;134.40;13.73;;;10.80;99.90;;;;;;5044071;28;20075;-60
2024/03/13 09:19:09;;;;;;;112.47;12.75;;;10.80;99.90;;;;;;5045600;28;20021;-60
2024/03/13 09:21:35;;;;;;;104.68;13.07;;;10.80;99.90;;;;;;5047525;28;20402;-59
2024/03/13 09:24:00;;;;;;;145.73;15.68;;;10.90;99.90;;;;;;5066555;28;20029;-59
2024/03/13 09:26:26;;;;;;;92.97;12.82;;;11.00;99.90;;;;;;5050261;28;20372;-60
2024/03/13 09:28:52;;;;;;;115.82;13.48;;;11.00;99.90;;;;;;5033424;28;20048;-60
2024/03/13 09:31:19;;;;;;;132.80;13.30;;;11.10;99.90;;;;;;5033864;28;20037;-60
2024/03/13 09:33:45;;;;;;;138.85;14.77;;;11.10;99.90;;;;;;5068826;28;20021;-60
2024/03/13 09:36:12;;;;;;;124.78;15.23;;;11.10;99.90;;;;;;5030494;28;20044;-60
2024/03/13 09:38:38;;;;;;;106.72;14.70;;;11.10;99.90;;;;;;5040896;28;20080;-60
2024/03/13 09:41:05;;;;;;;102.95;12.55;;;11.10;99.90;;;;;;5051355;28;20475;-59
2024/03/13 09:43:30;;;;;;;91.80;11.75;;;11.20;99.90;;;;;;5051106;28;20519;-60
2024/03/13 09:45:56;;;;;;;85.13;11.63;;;11.10;99.90;;;;;;5034538;28;20192;-60
2024/03/13 09:48:22;;;;;;;93.10;12.27;;;11.10;99.90;;;;;;5056309;28;20025;-60
2024/03/13 09:50:47;;;;;;;89.20;9.07;;;11.20;99.90;;;;;;5034520;28;20083;-59
2024/03/13 09:53:13;;;;;;;76.22;9.00;;;11.20;99.90;;;;;;5050877;28;20029;-59
2024/03/13 09:55:40;;;;;;;72.93;9.52;;;11.20;99.90;;;;;;5034530;28;20491;-59
2024/03/13 09:58:05;;;;;;;69.25;9.05;;;11.20;99.90;;;;;;5052237;28;20032;-59
2024/03/13 10:00:33;;;;;;;56.58;9.07;;;11.20;99.90;;;;;;5039826;28;20076;-59
2024/03/13 10:02:58;;;;;;;61.90;7.95;;;11.20;99.90;;;;;;5068089;28;20032;-59
2024/03/13 10:05:24;;;;;;;57.15;7.65;;;11.20;99.80;;;;;;5034033;28;20029;-59
2024/03/13 10:07:51;;;;;;;64.07;7.93;;;11.20;99.70;;;;;;5034488;28;20037;-59
2024/03/13 10:10:24;;;;;;;54.08;8.15;;;11.30;99.70;;;;;;5033983;28;20083;-59
2024/03/13 10:12:49;;;;;;;60.83;9.68;;;11.30;99.70;;;;;;5051410;28;20033;-60
2024/03/13 10:15:16;;;;;;;55.28;7.65;;;11.30;99.70;;;;;;5050330;28;20387;-60
2024/03/13 10:17:43;;;;;;;66.53;8.45;;;11.30;99.70;;;;;;5034231;28;20021;-59
2024/03/13 10:20:10;;;;;;;60.05;7.45;;;11.30;99.60;;;;;;5050538;28;20071;-59
2024/03/13 10:22:36;;;;;;;55.55;7.43;;;11.40;99.60;;;;;;5034056;28;20021;-60
2024/03/13 10:25:02;;;;;;;36.63;6.32;;;11.50;99.60;;;;;;5050661;28;20029;-60
2024/03/13 10:27:27;;;;;;;61.00;6.80;;;11.50;99.60;;;;;;5034110;28;20031;-60
2024/03/13 10:29:53;;;;;;;48.15;6.72;;;11.50;99.50;;;;;;5033868;28;20029;-60
2024/03/13 10:32:19;;;;;;;53.42;6.70;;;11.50;99.50;;;;;;5033689;28;20029;-60
2024/03/13 10:34:45;;;;;;;50.92;7.10;;;11.50;99.50;;;;;;5033467;28;20043;-59
2024/03/13 10:37:12;;;;;;;41.38;6.35;;;11.50;99.50;;;;;;5016902;28;20218;-60
2024/03/13 10:39:41;;;;;;;54.10;7.30;;;11.50;99.50;;;;;;5031628;28;20045;-60
2024/03/13 10:42:10;;;;;;;58.47;7.43;;;11.60;99.50;;;;;;5049790;28;20093;-59
2024/03/13 10:44:36;;;;;;;46.22;6.65;;;11.60;99.60;;;;;;5045005;28;20096;-60
2024/03/13 10:47:01;;;;;;;96.60;10.55;;;11.60;99.60;;;;;;5059827;28;20029;-60
2024/03/13 10:49:30;;;;;;;79.85;9.45;;;11.60;99.70;;;;;;5024880;28;20026;-60
2024/03/13 10:52:01;;;;;;;51.78;8.50;;;11.60;99.70;;;;;;5028884;28;20037;-60
2024/03/13 10:54:27;;;;;;;82.82;7.63;;;11.70;99.80;;;;;;5044779;28;20055;-60
2024/03/13 10:56:53;;;;;;;70.95;7.78;;;11.70;99.80;;;;;;5067531;28;20029;-60
2024/03/13 10:59:19;;;;;;;54.75;7.25;;;11.70;99.90;;;;;;5064244;28;20029;-60
2024/03/13 11:01:47;;;;;;;57.40;7.10;;;11.70;99.90;;;;;;5064292;28;20082;-60
2024/03/13 11:04:14;;;;;;;61.08;7.85;;;11.80;99.80;;;;;;5066338;28;20037;-60
2024/03/13 11:06:40;;;;;;;91.65;8.60;;;11.80;99.70;;;;;;5064129;28;20037;-60
2024/03/13 11:09:08;;;;;;;89.95;9.50;;;11.80;99.90;;;;;;5022950;28;20030;-59
2024/03/13 11:11:36;;;;;;;65.45;8.73;;;11.90;99.90;;;;;;5032159;28;20029;-60
2024/03/13 11:14:02;;;;;;;70.70;8.38;;;11.90;99.90;;;;;;5018088;28;20079;-60
2024/03/13 11:16:27;;;;;;;78.38;9.43;;;12.00;99.90;;;;;;5044282;28;20044;-60
2024/03/13 11:18:55;;;;;;;61.28;8.68;;;12.00;99.90;;;;;;5030692;28;20503;-60
2024/03/13 11:21:24;;;;;;;84.43;10.15;;;12.00;99.90;;;;;;5065412;28;20101;-60
2024/03/13 11:23:59;;;;;;;88.43;9.50;;;12.10;99.90;;;;;;5049236;28;20033;-59
2024/03/13 11:26:30;;;;;;;92.00;10.30;;;12.10;99.90;;;;;;5013359;28;20107;-60
2024/03/13 11:28:55;;;;;;;70.35;9.05;;;12.10;99.90;;;;;;5030055;28;20287;-59
2024/03/13 11:31:22;;;;;;;71.47;9.18;;;12.20;99.90;;;;;;5045817;28;20056;-60
2024/03/13 11:33:52;;;;;;;69.55;7.13;;;12.20;99.90;;;;;;5047921;28;20027;-59
2024/03/13 11:36:18;;;;;;;39.20;6.88;;;12.20;99.90;;;;;;5046676;28;20503;-60
2024/03/13 11:38:44;;;;;;;54.58;7.07;;;12.20;99.90;;;;;;5032577;28;20509;-59
2024/03/13 11:41:10;;;;;;;68.88;8.23;;;12.30;99.90;;;;;;5031146;28;20033;-60
2024/03/13 11:43:36;;;;;;;41.35;6.57;;;12.30;99.90;;;;;;5031184;28;20025;-60
2024/03/13 11:46:03;;;;;;;52.45;8.45;;;12.30;99.90;;;;;;5040681;28;20111;-60
2024/03/13 11:48:29;;;;;;;52.45;7.50;;;12.30;99.90;;;;;;5030355;28;20037;-60
2024/03/13 11:51:00;;;;;;;51.97;6.25;;;12.30;99.90;;;;;;5029211;28;20066;-59
2024/03/13 11:53:33;;;;;;;60.45;7.90;;;12.40;99.90;;;;;;5042929;28;20097;-60
2024/03/13 11:55:59;;;;;;;71.13;8.25;;;12.40;99.90;;;;;;5042667;28;20056;-59
2024/03/13 11:58:28;;;;;;;70.05;7.78;;;12.40;99.90;;;;;;5058224;28;20025;-60
2024/03/13 12:00:54;;;;;;;56.92;7.20;;;12.40;99.90;;;;;;5040409;28;20033;-60
2024/03/13 12:03:20;;;;;;;63.75;8.02;;;12.40;99.90;;;;;;5028622;28;20434;-60
2024/03/13 12:05:45;;;;;;;48.95;6.70;;;12.50;99.90;;;;;;5061665;28;20036;-59
2024/03/13 12:08:14;;;;;;;41.63;6.72;;;12.50;99.90;;;;;;5046819;28;20344;-60
2024/03/13 12:10:39;;;;;;;39.78;5.22;;;12.50;99.90;;;;;;5043364;28;20021;-60
2024/03/13 12:13:07;;;;;;;38.70;6.10;;;12.50;99.90;;;;;;5042485;28;20083;-60
2024/03/13 12:15:33;;;;;;;46.75;6.80;;;12.50;99.90;;;;;;5041320;28;20555;-60
2024/03/13 12:18:04;;;;;;;53.38;6.45;;;12.60;99.90;;;;;;5039540;28;20045;-60
2024/03/13 12:20:35;;;;;;;38.47;5.70;;;12.60;99.90;;;;;;5044384;28;20021;-60
2024/03/13 12:23:05;;;;;;;39.67;5.88;;;12.50;99.90;;;;;;5044738;28;20061;-60
2024/03/13 12:25:30;;;;;;;44.17;5.30;;;12.60;99.90;;;;;;5028047;28;20029;-59
2024/03/13 12:27:56;;;;;;;31.77;4.82;;;12.60;99.90;;;;;;5044511;28;20378;-60
2024/03/13 12:30:22;;;;;;;28.50;4.20;;;12.60;99.90;;;;;;5024343;28;20032;-59
2024/03/13 12:32:50;;;;;;;32.30;4.82;;;12.60;99.90;;;;;;5042314;28;20033;-53
2024/03/13 12:35:16;;;;;;;34.17;4.35;;;12.60;99.90;;;;;;5042430;28;20017;-53
2024/03/13 12:37:48;;;;;;;46.75;5.43;;;12.70;99.90;;;;;;5061509;28;20033;-53
2024/03/13 12:40:16;;;;;;;32.63;4.43;;;12.70;99.90;;;;;;5039601;28;20738;-53
2024/03/13 12:42:42;;;;;;;39.28;4.68;;;12.70;99.90;;;;;;5060601;28;20041;-53
2024/03/13 12:45:08;;;;;;;37.40;5.13;;;12.70;99.90;;;;;;5029423;28;20029;-53
2024/03/13 12:47:34;;;;;;;62.83;5.80;;;12.70;99.90;;;;;;5025670;28;20029;-53
2024/03/13 12:49:59;;;;;;;46.78;7.05;;;12.80;99.90;;;;;;5031060;28;20040;-53
2024/03/13 12:52:29;;;;;;;52.42;7.93;;;12.80;99.90;;;;;;5027387;28;20479;-53